Time;durP1;ratioP1;P1;durP2;ratioP2;P2;SDS_P1;SDS_P2;PMS_P1;PMS_P2;Temp;Humidity;BMP_temperature;BMP_pressure;BME280_temperature;BME280_humidity;BME280_pressure;Samples;Min_cycle;Max_cycle;Signal;HPM_P1;HPM_P2
2023/10/05 00:00:27;;;;;;;10.43;6.85;;;;;;;;;;5102423;28;20032;-45
2023/10/05 00:02:42;;;;;;;11.10;6.90;;;;;;;;;;5105974;28;20063;-46
2023/10/05 00:05:09;;;;;;;9.38;6.95;;;;;;;;;;5102076;28;20044;-45
2023/10/05 00:07:36;;;;;;;10.25;7.65;;;;;;;;;;5105447;28;20035;-50
2023/10/05 00:10:03;;;;;;;11.95;7.45;;;;;;;;;;5095603;28;20024;-45
2023/10/05 00:12:30;;;;;;;10.18;7.25;;;;;;;;;;5099271;28;20029;-47
2023/10/05 00:15:17;;;;;;;11.23;6.95;;;;;;;;;;5095188;28;20024;-48
2023/10/05 00:17:43;;;;;;;14.45;7.28;;;;;;;;;;5105630;28;20024;-41
2023/10/05 00:20:31;;;;;;;12.25;7.47;;;;;;;;;;5099453;28;20300;-44
2023/10/05 00:23:02;;;;;;;12.10;8.35;;;;;;;;;;5092286;28;20025;-50
2023/10/05 00:25:32;;;;;;;16.80;7.50;;;;;;;;;;5105241;28;20028;-51
2023/10/05 00:28:07;;;;;;;19.15;7.95;;;;;;;;;;5105556;28;20057;-46
2023/10/05 00:30:34;;;;;;;13.15;8.13;;;;;;;;;;5100157;28;20032;-44
2023/10/05 00:33:04;;;;;;;12.50;7.43;;;;;;;;;;5105195;28;20312;-39
2023/10/05 00:35:36;;;;;;;12.25;7.40;;;;;;;;;;5099305;28;20035;-38
2023/10/05 00:38:14;;;;;;;11.68;8.25;;;;;;;;;;5101558;28;20031;-39
2023/10/05 00:41:08;;;;;;;14.43;8.15;;;;;;;;;;5097442;28;20032;-40
2023/10/05 00:43:34;;;;;;;9.52;7.05;;;;;;;;;;5093302;28;20012;-43
2023/10/05 00:46:03;;;;;;;8.80;6.95;;;;;;;;;;5099571;28;20032;-38
2023/10/05 00:48:34;;;;;;;8.15;7.10;;;;;;;;;;5103763;28;20078;-44
2023/10/05 00:51:25;;;;;;;21.25;8.27;;;;;;;;;;5098647;28;20043;-51
2023/10/05 00:53:53;;;;;;;13.32;7.25;;;;;;;;;;5104799;28;20262;-45
2023/10/05 00:56:22;;;;;;;9.63;6.25;;;;;;;;;;5085939;28;20029;-35
2023/10/05 00:58:55;;;;;;;8.05;5.97;;;;;;;;;;5084579;28;20029;-47
2023/10/05 01:01:32;;;;;;;8.68;5.95;;;;;;;;;;5100247;28;20121;-45
2023/10/05 01:04:18;;;;;;;10.52;6.47;;;;;;;;;;5084350;28;20091;-39
2023/10/05 01:06:56;;;;;;;12.40;6.72;;;;;;;;;;5102193;28;20040;-48
2023/10/05 01:14:45;;;;;;;14.00;9.63;;;;;;;;;;5099711;28;20059;-45
2023/10/05 01:17:13;;;;;;;22.55;17.27;;;;;;;;;;5098679;28;20079;-39
2023/10/05 01:19:40;;;;;;;15.15;11.73;;;;;;;;;;5088951;28;20050;-42
2023/10/05 01:22:13;;;;;;;10.20;8.13;;;;;;;;;;5104223;28;20027;-36
2023/10/05 01:24:41;;;;;;;15.25;7.65;;;;;;;;;;5100884;28;20054;-42
2023/10/05 01:27:10;;;;;;;15.02;9.55;;;;;;;;;;5093539;28;20031;-50
2023/10/05 01:29:37;;;;;;;15.80;9.65;;;;;;;;;;5088609;28;20029;-43
2023/10/05 01:32:07;;;;;;;26.35;8.48;;;;;;;;;;5100498;28;20023;-39
2023/10/05 01:34:34;;;;;;;10.38;7.30;;;;;;;;;;5100990;28;20087;-42
2023/10/05 01:37:02;;;;;;;9.20;6.30;;;;;;;;;;5099537;28;20023;-42
2023/10/05 01:39:34;;;;;;;10.65;6.95;;;;;;;;;;5100596;28;20032;-35
2023/10/05 01:42:00;;;;;;;;;;;;;;;;;;5099988;28;20399;-39
2023/10/05 01:44:27;;;;;;;10.02;7.30;;;;;;;;;;5100670;28;19910;-39
2023/10/05 01:46:58;;;;;;;10.80;6.45;;;;;;;;;;5098244;28;20030;-40
2023/10/05 01:49:25;;;;;;;8.68;6.22;;;;;;;;;;5094772;28;20066;-43
2023/10/05 01:51:52;;;;;;;8.40;6.35;;;;;;;;;;5093848;28;20028;-40
2023/10/05 01:57:37;;;;;;;10.50;6.63;;;;;;;;;;5095261;28;20131;-45
2023/10/05 02:00:13;;;;;;;12.55;6.72;;;;;;;;;;5083650;28;20036;-37
2023/10/05 02:02:43;;;;;;;9.73;6.80;;;;;;;;;;5104687;28;20087;-49
2023/10/05 02:05:10;;;;;;;10.93;6.65;;;;;;;;;;5092800;28;20056;-42
2023/10/05 02:07:39;;;;;;;11.38;6.45;;;;;;;;;;5107094;28;20257;-36
2023/10/05 02:10:09;;;;;;;8.65;6.50;;;;;;;;;;5099605;28;20083;-38
2023/10/05 02:12:36;;;;;;;10.27;6.68;;;;;;;;;;5125427;28;20334;-40
2023/10/05 02:15:13;;;;;;;10.15;6.72;;;;;;;;;;5099899;27;20032;-47
2023/10/05 02:17:42;;;;;;;9.10;6.90;;;;;;;;;;5098002;28;20024;-43
2023/10/05 02:20:17;;;;;;;10.02;6.55;;;;;;;;;;5095565;28;20028;-45
2023/10/05 02:22:47;;;;;;;8.90;6.57;;;;;;;;;;5105301;28;20051;-41
2023/10/05 02:25:19;;;;;;;17.08;7.35;;;;;;;;;;5098066;28;20033;-44
2023/10/05 02:27:46;;;;;;;16.95;7.65;;;;;;;;;;5106498;28;20035;-51
2023/10/05 02:30:14;;;;;;;17.05;8.00;;;;;;;;;;5097217;28;20032;-41
2023/10/05 02:32:41;;;;;;;8.85;6.93;;;;;;;;;;5105653;28;20012;-46
2023/10/05 02:35:57;;;;;;;15.40;7.18;;;;;;;;;;5098561;28;20017;-47
2023/10/05 02:37:54;;;;;;;13.60;7.38;;;;;;;;;;5086457;28;20052;-34
2023/10/05 02:40:28;;;;;;;17.50;8.32;;;;;;;;;;5089393;28;20024;-39
2023/10/05 02:42:54;;;;;;;12.07;7.60;;;;;;;;;;5106783;28;20270;-37
2023/10/05 02:45:22;;;;;;;13.40;7.60;;;;;;;;;;5097495;28;20024;-39
2023/10/05 02:47:49;;;;;;;12.10;7.70;;;;;;;;;;5124545;28;20201;-44
2023/10/05 02:50:15;;;;;;;9.88;6.88;;;;;;;;;;5107698;28;20062;-46
2023/10/05 02:52:43;;;;;;;11.10;7.13;;;;;;;;;;5104354;28;20079;-39
2023/10/05 02:55:10;;;;;;;12.23;6.57;;;;;;;;;;5097824;28;20032;-44
2023/10/05 02:57:39;;;;;;;10.98;6.85;;;;;;;;;;5103326;28;20020;-39
2023/10/05 03:00:08;;;;;;;8.98;7.05;;;;;;;;;;5098196;28;20075;-43
2023/10/05 03:02:45;;;;;;;10.38;6.05;;;;;;;;;;5104994;28;20038;-40
2023/10/05 03:05:12;;;;;;;15.55;7.05;;;;;;;;;;5097236;28;20098;-42
2023/10/05 03:07:41;;;;;;;10.73;6.28;;;;;;;;;;5102736;28;20112;-36
2023/10/05 03:10:13;;;;;;;11.65;6.75;;;;;;;;;;5098270;28;20028;-37
2023/10/05 03:12:40;;;;;;;10.70;6.30;;;;;;;;;;5102645;28;20027;-52
2023/10/05 03:15:08;;;;;;;8.52;6.13;;;;;;;;;;5098241;28;20028;-45
2023/10/05 03:17:36;;;;;;;11.45;6.53;;;;;;;;;;5101466;28;20331;-42
2023/10/05 03:20:10;;;;;;;12.25;7.28;;;;;;;;;;5098832;28;20032;-44
2023/10/05 03:22:37;;;;;;;11.32;7.22;;;;;;;;;;5090628;28;20041;-42
2023/10/05 03:25:04;;;;;;;10.05;6.57;;;;;;;;;;5095832;28;20028;-41
2023/10/05 03:27:31;;;;;;;8.85;6.15;;;;;;;;;;5088491;28;20308;-42
2023/10/05 03:30:03;;;;;;;10.20;6.78;;;;;;;;;;5086484;28;20244;-35
2023/10/05 03:32:31;;;;;;;11.10;6.95;;;;;;;;;;5086311;28;20025;-36
2023/10/05 03:34:58;;;;;;;11.48;7.13;;;;;;;;;;5086286;28;20043;-39
2023/10/05 03:37:25;;;;;;;19.83;7.38;;;;;;;;;;5086440;28;20020;-44
2023/10/05 03:42:31;;;;;;;10.43;6.22;;;;;;;;;;5087919;28;20032;-40
2023/10/05 03:45:04;;;;;;;9.45;6.65;;;;;;;;;;5095118;28;20024;-37
2023/10/05 03:47:31;;;;;;;11.48;6.57;;;;;;;;;;5085769;28;20060;-39
2023/10/05 03:49:58;;;;;;;9.07;6.38;;;;;;;;;;5086057;28;20253;-45
2023/10/05 03:52:29;;;;;;;6.40;5.63;;;;;;;;;;5085866;28;20034;-39
2023/10/05 03:55:09;;;;;;;15.85;6.40;;;;;;;;;;5085707;28;20021;-45
2023/10/05 03:57:37;;;;;;;16.60;6.57;;;;;;;;;;5085833;28;20228;-38
2023/10/05 04:00:31;;;;;;;8.10;5.53;;;;;;;;;;5085697;28;20101;-43
2023/10/05 04:02:58;;;;;;;8.55;5.68;;;;;;;;;;5085612;28;20024;-45
2023/10/05 04:05:25;;;;;;;6.57;5.15;;;;;;;;;;5089306;28;20043;-44
2023/10/05 04:08:10;;;;;;;7.20;5.32;;;;;;;;;;5096617;28;20308;-49
2023/10/05 04:10:47;;;;;;;7.18;5.00;;;;;;;;;;5085643;28;20309;-41
2023/10/05 04:13:17;;;;;;;7.78;4.68;;;;;;;;;;5085401;28;20032;-35
2023/10/05 04:15:44;;;;;;;4.88;4.30;;;;;;;;;;5087286;28;20025;-38
2023/10/05 04:18:11;;;;;;;7.10;4.15;;;;;;;;;;5097542;28;20070;-42
2023/10/05 04:20:43;;;;;;;5.18;4.22;;;;;;;;;;5098440;28;20031;-38
2023/10/05 04:23:25;;;;;;;10.40;4.05;;;;;;;;;;5088619;28;20056;-39
2023/10/05 04:25:54;;;;;;;;;;;;;;;;;;5085163;28;20036;-44
2023/10/05 04:28:34;;;;;;;7.00;4.10;;;;;;;;;;5085029;28;20160;-41
2023/10/05 04:31:01;;;;;;;5.32;3.90;;;;;;;;;;5085393;28;20028;-38
2023/10/05 04:33:29;;;;;;;7.05;3.90;;;;;;;;;;5085137;28;20085;-42
2023/10/05 04:35:56;;;;;;;5.07;3.65;;;;;;;;;;5084712;28;20040;-39
2023/10/05 04:38:25;;;;;;;4.78;3.88;;;;;;;;;;5084821;28;20027;-41
2023/10/05 04:40:54;;;;;;;4.57;3.78;;;;;;;;;;5085223;28;20186;-40
2023/10/05 04:43:21;;;;;;;7.65;4.05;;;;;;;;;;5084611;28;20316;-51
2023/10/05 04:45:50;;;;;;;4.47;3.55;;;;;;;;;;5084923;28;20305;-45
2023/10/05 04:48:18;;;;;;;5.10;4.18;;;;;;;;;;5084668;28;20069;-44
2023/10/05 04:50:49;;;;;;;4.03;3.63;;;;;;;;;;5084869;28;20058;-39
2023/10/05 04:53:17;;;;;;;4.57;3.83;;;;;;;;;;5084566;28;20062;-49
2023/10/05 04:55:45;;;;;;;4.25;3.65;;;;;;;;;;5084747;28;20455;-43
2023/10/05 04:58:20;;;;;;;4.28;3.80;;;;;;;;;;5084660;28;20094;-39
2023/10/05 05:03:32;;;;;;;4.80;3.40;;;;;;;;;;5084283;28;20343;-41
2023/10/05 05:08:27;;;;;;;5.20;3.67;;;;;;;;;;5087066;28;20239;-44
2023/10/05 05:10:54;;;;;;;6.10;3.88;;;;;;;;;;5095798;28;20016;-46
2023/10/05 05:13:20;;;;;;;5.45;4.00;;;;;;;;;;5103984;28;20239;-40
2023/10/05 05:15:47;;;;;;;4.82;3.60;;;;;;;;;;5104604;28;20027;-43
2023/10/05 05:18:14;;;;;;;6.57;4.03;;;;;;;;;;5104627;28;20024;-36
2023/10/05 05:20:44;;;;;;;6.93;3.72;;;;;;;;;;5104763;28;20304;-45
2023/10/05 05:23:13;;;;;;;15.50;5.07;;;;;;;;;;5104271;28;20413;-48
2023/10/05 05:25:42;;;;;;;4.25;3.83;;;;;;;;;;5104579;28;20051;-42
2023/10/05 05:28:09;;;;;;;5.95;4.13;;;;;;;;;;5104489;28;20051;-46
2023/10/05 05:30:40;;;;;;;6.18;3.83;;;;;;;;;;5104437;28;20091;-52
2023/10/05 05:33:10;;;;;;;5.00;3.50;;;;;;;;;;5104413;28;20023;-48
2023/10/05 05:35:40;;;;;;;7.05;3.50;;;;;;;;;;5102528;28;20331;-44
2023/10/05 05:38:10;;;;;;;7.25;4.13;;;;;;;;;;5082990;28;20032;-48
2023/10/05 05:40:37;;;;;;;4.75;3.58;;;;;;;;;;5091010;28;20091;-43
2023/10/05 05:43:08;;;;;;;5.85;3.70;;;;;;;;;;5104240;28;20020;-55
2023/10/05 05:45:47;;;;;;;6.15;3.47;;;;;;;;;;5104313;28;20024;-43
2023/10/05 05:48:17;;;;;;;4.43;3.78;;;;;;;;;;5104070;28;20320;-36
2023/10/05 05:50:44;;;;;;;5.13;3.55;;;;;;;;;;5104267;28;20032;-45
2023/10/05 05:53:11;;;;;;;4.40;3.67;;;;;;;;;;5097825;28;20028;-37
2023/10/05 05:55:44;;;;;;;4.63;3.30;;;;;;;;;;5086244;28;20208;-41
2023/10/05 05:58:14;;;;;;;8.35;3.67;;;;;;;;;;5083682;28;20028;-42
2023/10/05 06:00:41;;;;;;;6.05;3.40;;;;;;;;;;5084023;28;20025;-39
2023/10/05 06:03:11;;;;;;;6.60;3.20;;;;;;;;;;5083640;28;20078;-41
2023/10/05 06:05:38;;;;;;;8.15;3.25;;;;;;;;;;5083485;28;20053;-41
2023/10/05 06:08:08;;;;;;;4.70;3.35;;;;;;;;;;5083770;28;20029;-47
2023/10/05 06:10:35;;;;;;;5.28;3.50;;;;;;;;;;5095982;28;20032;-52
2023/10/05 06:13:02;;;;;;;6.50;3.75;;;;;;;;;;5104152;28;20016;-43
2023/10/05 06:15:31;;;;;;;6.35;3.70;;;;;;;;;;5104003;28;20036;-42
2023/10/05 06:17:59;;;;;;;5.93;3.53;;;;;;;;;;5103720;28;20028;-51
2023/10/05 06:20:26;;;;;;;7.90;3.38;;;;;;;;;;5103998;28;20024;-38
2023/10/05 06:22:53;;;;;;;4.63;3.45;;;;;;;;;;5103735;28;20024;-38
2023/10/05 06:25:19;;;;;;;7.93;3.88;;;;;;;;;;5103920;28;20098;-37
2023/10/05 06:27:51;;;;;;;4.30;3.15;;;;;;;;;;5103631;28;20028;-42
2023/10/05 06:30:20;;;;;;;6.87;4.00;;;;;;;;;;5103944;28;20082;-46
2023/10/05 06:32:47;;;;;;;5.50;3.85;;;;;;;;;;5103500;28;20032;-42
2023/10/05 06:35:14;;;;;;;7.38;3.72;;;;;;;;;;5103841;28;20031;-46
2023/10/05 06:37:41;;;;;;;10.20;4.22;;;;;;;;;;5103566;28;20051;-42
2023/10/05 06:40:21;;;;;;;12.38;4.25;;;;;;;;;;5103609;28;20040;-50
2023/10/05 06:42:55;;;;;;;6.00;4.05;;;;;;;;;;5103833;28;20036;-47
2023/10/05 06:45:23;;;;;;;7.47;4.30;;;;;;;;;;5103621;28;20048;-45
2023/10/05 06:47:51;;;;;;;5.18;4.32;;;;;;;;;;5103475;28;20216;-51
2023/10/05 06:50:18;;;;;;;4.85;4.30;;;;;;;;;;5107115;28;20220;-36
2023/10/05 06:52:48;;;;;;;8.35;4.93;;;;;;;;;;5107125;28;20008;-46
2023/10/05 06:55:17;;;;;;;6.40;5.00;;;;;;;;;;5107325;28;20030;-39
2023/10/05 06:57:44;;;;;;;8.07;4.72;;;;;;;;;;5107453;28;20212;-36
2023/10/05 07:00:22;;;;;;;8.23;4.85;;;;;;;;;;5107104;28;20024;-39
2023/10/05 07:02:48;;;;;;;8.43;5.05;;;;;;;;;;5090829;28;20035;-43
2023/10/05 07:05:15;;;;;;;6.38;5.30;;;;;;;;;;5086490;28;20056;-43
2023/10/05 07:07:42;;;;;;;7.65;4.97;;;;;;;;;;5086515;28;20036;-35
2023/10/05 07:10:10;;;;;;;7.53;5.00;;;;;;;;;;5086820;28;20100;-37
2023/10/05 07:12:48;;;;;;;6.45;4.90;;;;;;;;;;5086499;28;20095;-39
2023/10/05 07:15:15;;;;;;;7.65;5.35;;;;;;;;;;5086636;28;20031;-40
2023/10/05 07:17:42;;;;;;;5.47;4.97;;;;;;;;;;5086504;28;20347;-37
2023/10/05 07:20:11;;;;;;;5.47;4.97;;;;;;;;;;5086425;28;20039;-36
2023/10/05 07:22:44;;;;;;;7.43;5.55;;;;;;;;;;5086650;28;20029;-48
2023/10/05 07:25:11;;;;;;;7.75;5.13;;;;;;;;;;5086332;28;20219;-40
2023/10/05 07:27:39;;;;;;;6.82;5.40;;;;;;;;;;5086307;28;20032;-42
2023/10/05 07:30:06;;;;;;;5.60;5.05;;;;;;;;;;5086507;28;20036;-39
2023/10/05 07:32:36;;;;;;;10.65;5.47;;;;;;;;;;5086058;28;20051;-50
2023/10/05 07:35:05;;;;;;;8.85;5.43;;;;;;;;;;5086466;28;20024;-37
2023/10/05 07:37:33;;;;;;;6.57;4.68;;;;;;;;;;5086155;28;20052;-37
2023/10/05 07:40:00;;;;;;;5.35;4.82;;;;;;;;;;5086061;28;20054;-38
2023/10/05 07:42:30;;;;;;;7.47;5.20;;;;;;;;;;5086145;28;20025;-36
2023/10/05 07:44:59;;;;;;;7.47;4.97;;;;;;;;;;5086018;28;20066;-40
2023/10/05 07:47:26;;;;;;;6.93;5.15;;;;;;;;;;5085665;28;20028;-40
2023/10/05 07:49:55;;;;;;;9.45;5.10;;;;;;;;;;5085967;28;20027;-42
2023/10/05 07:52:22;;;;;;;6.72;4.78;;;;;;;;;;5085889;28;20055;-45
2023/10/05 07:54:51;;;;;;;6.03;5.22;;;;;;;;;;5085677;28;20028;-40
2023/10/05 07:57:18;;;;;;;5.50;5.00;;;;;;;;;;5085891;28;20021;-40
2023/10/05 07:59:44;;;;;;;6.63;5.18;;;;;;;;;;5085246;28;20060;-35
2023/10/05 08:02:12;;;;;;;5.57;5.07;;;;;;;;;;5085069;28;20032;-45
2023/10/05 08:04:38;;;;;;;6.38;5.43;;;;;;;;;;5085353;28;20075;-37
2023/10/05 08:07:05;;;;;;;7.07;5.38;;;;;;;;;;5085488;28;20039;-37
2023/10/05 08:09:32;;;;;;;5.40;4.90;;;;;;;;;;5085327;28;20087;-35
2023/10/05 08:11:59;;;;;;;6.20;5.13;;;;;;;;;;5085361;28;20051;-41
2023/10/05 08:14:25;;;;;;;6.57;5.93;;;;;;;;;;5085504;28;20460;-38
2023/10/05 08:16:53;;;;;;;6.55;5.50;;;;;;;;;;5085117;28;20032;-38
2023/10/05 08:19:25;;;;;;;6.65;5.75;;;;;;;;;;5085338;28;20036;-42
2023/10/05 08:21:54;;;;;;;7.57;6.13;;;;;;;;;;5085186;28;20024;-41
2023/10/05 08:24:23;;;;;;;7.10;6.38;;;;;;;;;;5085018;28;20039;-45
2023/10/05 08:26:51;;;;;;;15.25;6.40;;;;;;;;;;5085030;28;20035;-50
2023/10/05 08:29:22;;;;;;;8.88;6.13;;;;;;;;;;5084966;28;20043;-51
2023/10/05 08:31:51;;;;;;;7.28;5.55;;;;;;;;;;5086448;28;20025;-41
2023/10/05 08:34:22;;;;;;;10.32;6.47;;;;;;;;;;5084915;28;20023;-40
2023/10/05 08:36:51;;;;;;;7.43;5.60;;;;;;;;;;5084752;28;20033;-36
2023/10/05 08:39:25;;;;;;;8.00;5.80;;;;;;;;;;5084813;28;20032;-38
2023/10/05 08:42:13;;;;;;;8.95;5.78;;;;;;;;;;5085018;28;20092;-38
2023/10/05 08:44:38;;;;;;;7.32;5.70;;;;;;;;;;5084596;28;20105;-40
2023/10/05 08:47:06;;;;;;;7.20;5.90;;;;;;;;;;5084628;28;20036;-38
2023/10/05 08:49:33;;;;;;;7.97;5.85;;;;;;;;;;5084555;28;20035;-35
2023/10/05 08:52:07;;;;;;;7.25;5.25;;;;;;;;;;5084769;28;20025;-35
2023/10/05 08:54:34;;;;;;;7.70;5.35;;;;;;;;;;5084548;28;20029;-44
2023/10/05 08:57:09;;;;;;;7.47;5.25;;;;;;;;;;5084483;28;20028;-46
2023/10/05 08:59:36;;;;;;;7.32;5.13;;;;;;;;;;5084565;28;20036;-37
2023/10/05 09:02:07;;;;;;;9.65;6.07;;;;;;;;;;5088440;28;20055;-44
2023/10/05 09:04:43;;;;;;;7.22;5.20;;;;;;;;;;5095609;28;20036;-36
2023/10/05 09:07:27;;;;;;;6.30;4.95;;;;;;;;;;5104767;28;20024;-41
2023/10/05 09:09:57;;;;;;;5.28;4.78;;;;;;;;;;5104767;28;20081;-43
2023/10/05 09:12:46;;;;;;;6.85;4.57;;;;;;;;;;5104435;28;20027;-42
2023/10/05 09:15:27;;;;;;;5.85;4.35;;;;;;;;;;5104772;28;20024;-40
2023/10/05 09:20:31;;;;;;;5.22;4.20;;;;;;;;;;5104741;28;20043;-37
2023/10/05 09:23:00;;;;;;;5.80;3.70;;;;;;;;;;5104420;28;20023;-45
2023/10/05 09:25:34;;;;;;;5.03;4.18;;;;;;;;;;5104598;28;20036;-48
2023/10/05 09:28:44;;;;;;;7.10;4.30;;;;;;;;;;5104341;28;20020;-36
2023/10/05 09:31:02;;;;;;;4.22;3.83;;;;;;;;;;5102663;28;20103;-44
2023/10/05 09:33:36;;;;;;;9.40;4.15;;;;;;;;;;5104250;28;20079;-41
2023/10/05 09:36:22;;;;;;;7.22;4.38;;;;;;;;;;5104726;28;20047;-44
2023/10/05 09:38:51;;;;;;;5.15;4.25;;;;;;;;;;5104310;28;20024;-44
2023/10/05 09:41:25;;;;;;;4.60;4.05;;;;;;;;;;5104651;28;20167;-48
2023/10/05 09:44:02;;;;;;;7.28;4.78;;;;;;;;;;5104593;28;20061;-39
2023/10/05 09:46:29;;;;;;;7.75;4.68;;;;;;;;;;5104337;28;20036;-43
2023/10/05 09:48:56;;;;;;;5.07;4.40;;;;;;;;;;5103990;28;20334;-35
2023/10/05 09:51:22;;;;;;;9.70;4.60;;;;;;;;;;5104560;28;20028;-45
2023/10/05 09:53:51;;;;;;;7.13;4.32;;;;;;;;;;5103858;28;20028;-41
2023/10/05 09:56:20;;;;;;;10.63;4.78;;;;;;;;;;5104443;28;20220;-43
2023/10/05 09:58:47;;;;;;;8.80;5.25;;;;;;;;;;5103959;28;20028;-39
2023/10/05 10:01:14;;;;;;;6.75;4.53;;;;;;;;;;5104232;28;20040;-39
2023/10/05 10:03:45;;;;;;;5.28;4.70;;;;;;;;;;5103939;28;20300;-37
2023/10/05 10:06:13;;;;;;;6.22;4.70;;;;;;;;;;5103448;28;20063;-45
2023/10/05 10:08:54;;;;;;;7.60;4.75;;;;;;;;;;5103831;28;20383;-47
2023/10/05 10:11:27;;;;;;;9.18;4.82;;;;;;;;;;5104322;28;20354;-43
2023/10/05 10:14:01;;;;;;;7.00;5.07;;;;;;;;;;5103744;28;20391;-43
2023/10/05 10:16:28;;;;;;;10.48;5.20;;;;;;;;;;5104259;28;20338;-46
2023/10/05 10:19:04;;;;;;;9.80;5.03;;;;;;;;;;5103617;28;20028;-44
2023/10/05 10:21:42;;;;;;;7.35;5.20;;;;;;;;;;5103601;28;20036;-47
2023/10/05 10:24:12;;;;;;;9.75;5.30;;;;;;;;;;5105150;28;20316;-48
2023/10/05 10:27:15;;;;;;;8.35;4.95;;;;;;;;;;5107729;28;20042;-37
2023/10/05 10:29:51;;;;;;;7.13;4.63;;;;;;;;;;5025672;28;20281;-38
2023/10/05 10:32:18;;;;;;;5.55;4.75;;;;;;;;;;5079993;28;20040;-34
2023/10/05 10:35:26;;;;;;;7.55;5.10;;;;;;;;;;5095622;28;20036;-42
2023/10/05 10:37:44;;;;;;;8.10;5.00;;;;;;;;;;5086154;28;20355;-43
2023/10/05 10:42:55;;;;;;;9.05;5.20;;;;;;;;;;5103125;28;20394;-38
2023/10/05 10:46:08;;;;;;;8.82;5.25;;;;;;;;;;5096832;28;20070;-34
2023/10/05 10:48:28;;;;;;;12.52;6.20;;;;;;;;;;5092124;28;20046;-42
2023/10/05 10:50:59;;;;;;;14.00;6.25;;;;;;;;;;5098159;28;20028;-37
2023/10/05 10:53:30;;;;;;;11.77;5.97;;;;;;;;;;5096855;28;20320;-40
2023/10/05 10:55:58;;;;;;;13.13;6.05;;;;;;;;;;5095813;28;20031;-34
2023/10/05 10:58:26;;;;;;;9.88;5.38;;;;;;;;;;5098979;28;20328;-43
2023/10/05 11:00:57;;;;;;;15.68;5.65;;;;;;;;;;5107437;28;20024;-38
2023/10/05 11:03:28;;;;;;;21.50;5.93;;;;;;;;;;5094095;28;20048;-39
2023/10/05 11:05:54;;;;;;;7.85;5.10;;;;;;;;;;5086562;28;20059;-40
2023/10/05 11:08:21;;;;;;;11.10;5.32;;;;;;;;;;5087099;28;20016;-38
2023/10/05 11:11:09;;;;;;;9.65;6.00;;;;;;;;;;5087053;28;20063;-42
2023/10/05 11:13:44;;;;;;;12.50;5.68;;;;;;;;;;5086714;28;20028;-36
2023/10/05 11:16:11;;;;;;;9.43;5.45;;;;;;;;;;5086898;28;20032;-41
2023/10/05 11:18:50;;;;;;;10.30;5.35;;;;;;;;;;5085125;28;20030;-39
2023/10/05 11:21:23;;;;;;;10.35;5.55;;;;;;;;;;5085190;28;20280;-42
2023/10/05 11:23:56;;;;;;;11.23;5.20;;;;;;;;;;5084916;28;20032;-37
2023/10/05 11:26:33;;;;;;;12.57;4.90;;;;;;;;;;5084906;28;20095;-43
2023/10/05 11:29:00;;;;;;;8.35;5.18;;;;;;;;;;5084817;28;20033;-43
2023/10/05 11:31:27;;;;;;;9.55;5.38;;;;;;;;;;5085335;28;20028;-37
2023/10/05 11:34:00;;;;;;;8.43;5.97;;;;;;;;;;5085833;28;20248;-39
2023/10/05 11:36:27;;;;;;;9.15;5.35;;;;;;;;;;5086531;28;20029;-45
2023/10/05 11:38:57;;;;;;;10.35;6.05;;;;;;;;;;5086078;28;20095;-40
2023/10/05 11:41:30;;;;;;;8.32;5.55;;;;;;;;;;5086544;28;20033;-49
2023/10/05 11:43:58;;;;;;;9.25;5.47;;;;;;;;;;5085953;28;20035;-43
2023/10/05 11:46:26;;;;;;;8.93;5.70;;;;;;;;;;5086247;28;20246;-42
2023/10/05 11:48:56;;;;;;;8.38;5.53;;;;;;;;;;5085882;28;20021;-36
2023/10/05 11:51:35;;;;;;;6.68;5.13;;;;;;;;;;5086305;28;20028;-40
2023/10/05 11:54:04;;;;;;;8.50;5.10;;;;;;;;;;5085792;28;20081;-36
2023/10/05 11:56:31;;;;;;;5.38;4.88;;;;;;;;;;5086174;28;20031;-42
2023/10/05 11:59:00;;;;;;;8.85;5.45;;;;;;;;;;5085521;28;20039;-44
2023/10/05 12:01:32;;;;;;;8.70;5.13;;;;;;;;;;5085990;28;20200;-49
2023/10/05 12:03:59;;;;;;;12.00;5.50;;;;;;;;;;5085567;28;20324;-42
2023/10/05 12:06:25;;;;;;;8.27;5.35;;;;;;;;;;5085130;28;20370;-39
2023/10/05 12:09:27;;;;;;;9.38;5.57;;;;;;;;;;5085636;28;20016;-48
2023/10/05 12:11:58;;;;;;;14.88;6.13;;;;;;;;;;5085408;28;20096;-35
2023/10/05 12:14:28;;;;;;;12.63;5.63;;;;;;;;;;5085421;28;20091;-38
2023/10/05 12:16:59;;;;;;;6.07;4.82;;;;;;;;;;5085148;28;20352;-38
2023/10/05 12:19:29;;;;;;;10.45;5.53;;;;;;;;;;5085294;28;20032;-38
2023/10/05 12:21:56;;;;;;;10.77;5.60;;;;;;;;;;5085195;28;20344;-47
2023/10/05 12:24:24;;;;;;;5.60;5.03;;;;;;;;;;5085066;28;20056;-35
2023/10/05 12:26:51;;;;;;;6.18;5.03;;;;;;;;;;5085050;28;20048;-48
2023/10/05 12:29:18;;;;;;;12.77;5.28;;;;;;;;;;5085004;28;20028;-46
2023/10/05 12:31:51;;;;;;;8.77;5.30;;;;;;;;;;5084906;28;20052;-45
2023/10/05 12:34:23;;;;;;;10.38;5.50;;;;;;;;;;5084986;28;20017;-46
2023/10/05 12:36:51;;;;;;;9.07;5.65;;;;;;;;;;5084803;28;20050;-46
2023/10/05 12:39:26;;;;;;;5.90;5.18;;;;;;;;;;5084829;28;20043;-37
2023/10/05 12:41:54;;;;;;;10.18;5.35;;;;;;;;;;5085042;28;20028;-42
2023/10/05 12:44:22;;;;;;;7.18;5.40;;;;;;;;;;5084482;28;20020;-42
2023/10/05 12:46:49;;;;;;;6.80;5.43;;;;;;;;;;5084093;28;20039;-36
2023/10/05 12:49:16;;;;;;;10.63;5.47;;;;;;;;;;5084678;28;20026;-42
2023/10/05 12:51:44;;;;;;;9.57;5.70;;;;;;;;;;5084560;28;20028;-44
2023/10/05 12:54:29;;;;;;;6.32;5.53;;;;;;;;;;5084694;28;20215;-39
2023/10/05 12:56:56;;;;;;;6.38;5.70;;;;;;;;;;5084445;28;20322;-41
2023/10/05 12:59:24;;;;;;;7.43;5.55;;;;;;;;;;5084488;28;20048;-41
2023/10/05 13:01:52;;;;;;;12.07;6.20;;;;;;;;;;5084417;28;20217;-43
2023/10/05 13:04:22;;;;;;;9.07;6.22;;;;;;;;;;5084288;28;20051;-44
2023/10/05 13:06:49;;;;;;;8.15;5.60;;;;;;;;;;5084271;28;20032;-44
2023/10/05 13:09:19;;;;;;;7.00;6.30;;;;;;;;;;5084687;28;20040;-43
2023/10/05 13:11:47;;;;;;;7.63;6.22;;;;;;;;;;5084292;28;20086;-37
2023/10/05 13:14:14;;;;;;;8.43;6.40;;;;;;;;;;5084050;28;20027;-38
2023/10/05 13:16:41;;;;;;;13.32;6.22;;;;;;;;;;5084121;28;20249;-43
2023/10/05 13:19:12;;;;;;;7.03;5.93;;;;;;;;;;5084277;28;20029;-41
2023/10/05 13:21:45;;;;;;;8.88;6.38;;;;;;;;;;5084107;28;20099;-40
2023/10/05 13:24:12;;;;;;;7.00;6.13;;;;;;;;;;5084087;28;20216;-39
2023/10/05 13:26:46;;;;;;;7.57;6.30;;;;;;;;;;5084025;28;20029;-38
2023/10/05 13:29:16;;;;;;;9.60;6.85;;;;;;;;;;5083981;28;20044;-46
2023/10/05 13:31:43;;;;;;;8.68;6.40;;;;;;;;;;5083940;28;20025;-40
2023/10/05 13:34:11;;;;;;;7.50;6.72;;;;;;;;;;5083867;28;20020;-42
2023/10/05 13:36:39;;;;;;;8.35;7.00;;;;;;;;;;5084228;28;20028;-49
2023/10/05 13:39:12;;;;;;;9.65;7.00;;;;;;;;;;5083836;28;20032;-41
2023/10/05 13:41:46;;;;;;;11.10;7.18;;;;;;;;;;5083886;28;20051;-41
2023/10/05 13:44:14;;;;;;;7.47;6.47;;;;;;;;;;5083649;28;20036;-46
2023/10/05 13:46:47;;;;;;;7.93;7.07;;;;;;;;;;5083989;28;20027;-38
2023/10/05 13:49:16;;;;;;;9.02;7.05;;;;;;;;;;5083801;28;20100;-38
2023/10/05 13:51:44;;;;;;;9.27;7.10;;;;;;;;;;5083946;28;20023;-44
2023/10/05 13:54:15;;;;;;;8.60;7.22;;;;;;;;;;5083705;28;20096;-44
2023/10/05 13:56:42;;;;;;;10.05;7.38;;;;;;;;;;5083726;28;20090;-45
2023/10/05 13:59:17;;;;;;;8.60;6.95;;;;;;;;;;5085450;28;20027;-52
2023/10/05 14:01:44;;;;;;;8.15;7.35;;;;;;;;;;5087863;28;20040;-47
2023/10/05 14:04:14;;;;;;;7.68;6.97;;;;;;;;;;5087855;28;20296;-52
2023/10/05 14:06:43;;;;;;;9.70;7.60;;;;;;;;;;5087596;28;20228;-49
2023/10/05 14:09:10;;;;;;;14.55;7.45;;;;;;;;;;5087608;28;20027;-45
2023/10/05 14:11:40;;;;;;;8.63;7.53;;;;;;;;;;5087544;28;20336;-46
2023/10/05 14:14:07;;;;;;;10.10;7.30;;;;;;;;;;5087884;28;20255;-46
2023/10/05 14:16:52;;;;;;;8.23;7.15;;;;;;;;;;5087716;28;20067;-50
2023/10/05 14:19:22;;;;;;;8.45;7.13;;;;;;;;;;5087528;28;20025;-46
2023/10/05 14:21:50;;;;;;;9.60;7.75;;;;;;;;;;5087570;28;20094;-48
2023/10/05 14:24:21;;;;;;;8.38;7.47;;;;;;;;;;5087272;28;20088;-42
2023/10/05 14:26:54;;;;;;;9.05;8.02;;;;;;;;;;5087359;28;20080;-39
2023/10/05 14:29:24;;;;;;;8.90;7.90;;;;;;;;;;5087208;28;20263;-44
2023/10/05 14:31:56;;;;;;;11.55;7.82;;;;;;;;;;5087226;28;20024;-39
2023/10/05 14:34:22;;;;;;;9.45;7.43;;;;;;;;;;5087129;28;20032;-41
2023/10/05 14:36:52;;;;;;;10.10;7.63;;;;;;;;;;5087141;28;20020;-42
2023/10/05 14:39:21;;;;;;;10.07;7.82;;;;;;;;;;5087019;28;20044;-40
2023/10/05 14:41:54;;;;;;;9.02;7.82;;;;;;;;;;5087097;28;20025;-44
2023/10/05 14:44:21;;;;;;;19.55;7.75;;;;;;;;;;5086874;28;20030;-42
2023/10/05 14:46:49;;;;;;;8.55;7.75;;;;;;;;;;5086936;28;20095;-40
2023/10/05 14:49:21;;;;;;;11.90;8.35;;;;;;;;;;5086862;28;20017;-49
2023/10/05 14:51:52;;;;;;;9.00;8.07;;;;;;;;;;5086931;28;20021;-36
2023/10/05 14:54:21;;;;;;;12.27;8.27;;;;;;;;;;5086863;28;20032;-39
2023/10/05 14:56:48;;;;;;;11.30;7.72;;;;;;;;;;5086703;28;20028;-42
2023/10/05 14:59:15;;;;;;;9.73;8.38;;;;;;;;;;5086840;28;20042;-42
2023/10/05 15:01:42;;;;;;;12.35;8.73;;;;;;;;;;5086661;28;20032;-47
2023/10/05 15:04:08;;;;;;;17.60;8.55;;;;;;;;;;5086559;28;20043;-44
2023/10/05 15:06:35;;;;;;;12.57;8.30;;;;;;;;;;5086385;28;20051;-48
2023/10/05 15:09:02;;;;;;;16.13;8.00;;;;;;;;;;5086188;28;20024;-46
2023/10/05 15:11:29;;;;;;;12.70;8.30;;;;;;;;;;5086567;28;20076;-42
2023/10/05 15:13:58;;;;;;;20.25;8.88;;;;;;;;;;5086805;28;20069;-46
2023/10/05 15:16:26;;;;;;;18.92;9.57;;;;;;;;;;5086601;28;20025;-44
2023/10/05 15:18:54;;;;;;;20.08;9.07;;;;;;;;;;5086124;28;20087;-45